createdAt,value
2018-04-18T00:01:20.626Z,6.70
2018-04-18T00:03:46.526Z,18.30
2018-04-18T00:06:15.800Z,6.50
2018-04-18T00:08:41.710Z,5.68
2018-04-18T00:11:11.538Z,7.30
2018-04-18T00:13:37.425Z,5.60
2018-04-18T00:16:06.571Z,9.23
2018-04-18T00:18:32.446Z,7.62
2018-04-18T00:20:58.355Z,4.13
2018-04-18T00:23:24.266Z,7.80
2018-04-18T00:25:50.156Z,10.30
2018-04-18T00:28:17.094Z,12.40
2018-04-18T00:30:43.006Z,8.25
2018-04-18T00:33:11.224Z,5.00
2018-04-18T00:35:37.113Z,12.73
2018-04-18T00:38:06.457Z,8.83
2018-04-18T00:40:32.345Z,5.80
2018-04-18T00:43:01.712Z,12.23
2018-04-18T00:45:27.631Z,6.43
2018-04-18T00:47:57.140Z,12.10
2018-04-18T00:50:23.039Z,14.00
2018-04-18T00:52:50.195Z,5.33
2018-04-18T00:55:16.076Z,7.40
2018-04-18T00:57:41.974Z,4.53
2018-04-18T01:00:07.875Z,14.43
2018-04-18T01:02:33.779Z,11.17
2018-04-18T01:05:03.574Z,12.53
2018-04-18T01:07:29.509Z,15.02
2018-04-18T01:09:56.928Z,6.80
2018-04-18T01:12:22.796Z,9.48
2018-04-18T01:14:52.151Z,7.23
2018-04-18T01:17:18.051Z,8.18
2018-04-18T01:19:47.602Z,5.80
2018-04-18T01:22:13.495Z,10.00
2018-04-18T01:24:40.859Z,7.47
2018-04-18T01:27:06.763Z,9.82
2018-04-18T01:29:36.271Z,5.10
2018-04-18T01:32:02.204Z,12.32
2018-04-18T01:34:28.098Z,7.23
2018-04-18T01:36:53.999Z,9.17
2018-04-18T01:39:19.900Z,6.80
2018-04-18T01:41:47.679Z,6.43
2018-04-18T01:44:13.611Z,5.80
2018-04-18T01:46:43.449Z,7.30
2018-04-18T01:49:20.695Z,9.20
2018-04-18T01:51:46.622Z,7.93
2018-04-18T01:54:12.491Z,6.80
2018-04-18T01:56:38.400Z,17.37
2018-04-18T01:59:04.303Z,9.90
2018-04-18T02:01:30.218Z,7.30
2018-04-18T02:03:56.088Z,10.10
2018-04-18T02:06:21.979Z,8.17
2018-04-18T02:08:47.951Z,16.60
2018-04-18T02:11:13.852Z,9.63
2018-04-18T02:13:39.761Z,6.73
2018-04-18T02:16:05.659Z,12.07
2018-04-18T02:18:32.527Z,11.60
2018-04-18T02:20:58.436Z,10.35
2018-04-18T02:23:27.196Z,14.60
2018-04-18T02:25:53.067Z,6.10
2018-04-18T02:28:22.686Z,5.53
2018-04-18T02:30:48.583Z,4.65
2018-04-18T02:33:18.129Z,13.30
2018-04-18T02:35:44.075Z,10.05
2018-04-18T02:38:11.046Z,11.77
2018-04-18T02:40:36.976Z,7.20
2018-04-18T02:43:05.957Z,6.37
2018-04-18T02:45:31.849Z,8.18
2018-04-18T02:47:57.769Z,10.70
2018-04-18T02:50:23.660Z,7.87
2018-04-18T02:52:49.554Z,6.20
2018-04-18T02:55:19.331Z,7.40
2018-04-18T02:57:45.226Z,6.97
2018-04-18T03:00:12.327Z,7.70
2018-04-18T03:02:38.221Z,8.00
2018-04-18T03:05:07.643Z,14.63
2018-04-18T03:07:33.627Z,10.77
2018-04-18T03:10:02.689Z,9.70
2018-04-18T03:12:28.575Z,8.57
2018-04-18T03:14:57.960Z,5.30
2018-04-18T03:17:23.903Z,7.93
2018-04-18T03:19:51.196Z,9.43
2018-04-18T03:22:17.066Z,8.05
2018-04-18T03:24:42.983Z,10.87
2018-04-18T03:27:08.867Z,9.77
2018-04-18T03:29:34.759Z,11.43
2018-04-18T03:32:04.485Z,11.63
2018-04-18T03:34:30.348Z,10.32
2018-04-18T03:36:57.762Z,11.63
2018-04-18T03:39:23.665Z,5.90
2018-04-18T03:41:53.326Z,13.77
2018-04-18T03:44:19.215Z,13.32
2018-04-18T03:46:48.104Z,13.90
2018-04-18T03:49:14.023Z,12.60
2018-04-18T03:51:43.238Z,7.97
2018-04-18T03:54:09.162Z,10.93
2018-04-18T03:56:38.222Z,7.83
2018-04-18T03:59:04.096Z,17.02
2018-04-18T04:01:29.955Z,8.20
2018-04-18T04:03:55.895Z,8.43
2018-04-18T04:06:21.793Z,8.80
2018-04-18T04:08:48.101Z,13.00
2018-04-18T04:11:14.000Z,8.20
2018-04-18T04:13:42.863Z,9.80
2018-04-18T04:16:21.334Z,11.93
2018-04-18T04:21:57.481Z,7.70
2018-04-18T04:27:21.999Z,7.30
2018-04-18T04:29:47.877Z,10.20
2018-04-18T04:32:13.754Z,9.30
2018-04-18T04:34:39.679Z,6.43
2018-04-18T04:37:05.593Z,13.63
2018-04-18T04:39:46.515Z,6.80
2018-04-18T04:42:12.423Z,7.68
2018-04-18T04:44:38.323Z,9.40
2018-04-18T04:47:04.182Z,9.13
2018-04-18T04:49:30.107Z,10.57
2018-04-18T04:51:55.971Z,12.73
2018-04-18T04:54:21.869Z,20.13
2018-04-18T04:56:47.777Z,12.60
2018-04-18T04:59:13.669Z,9.00
2018-04-18T05:01:39.556Z,6.50
2018-04-18T05:04:05.441Z,9.37
2018-04-18T05:06:31.375Z,8.70
2018-04-18T05:08:57.318Z,8.83
2018-04-18T05:11:23.215Z,13.63
2018-04-18T05:13:49.117Z,13.10
2018-04-18T05:16:14.987Z,12.13
2018-04-18T05:18:40.901Z,9.67
2018-04-18T05:21:07.368Z,13.03
2018-04-18T05:23:33.254Z,8.65
2018-04-18T05:26:03.094Z,13.93
2018-04-18T05:28:29.068Z,7.75
2018-04-18T05:30:58.508Z,6.93
2018-04-18T05:33:24.389Z,12.70
2018-04-18T05:35:50.223Z,8.33
2018-04-18T05:38:16.153Z,12.43
2018-04-18T05:40:42.065Z,11.43
2018-04-18T05:43:08.514Z,10.77
2018-04-18T05:45:34.388Z,6.80
2018-04-18T05:48:03.375Z,8.70
2018-04-18T05:50:29.258Z,14.10
2018-04-18T05:52:59.190Z,7.60
2018-04-18T05:55:25.122Z,10.10
2018-04-18T05:57:54.344Z,8.37
2018-04-18T06:00:20.311Z,14.73
2018-04-18T06:02:47.559Z,9.70
2018-04-18T06:05:13.503Z,7.97
2018-04-18T06:07:42.711Z,16.90
2018-04-18T06:10:08.610Z,8.30
2018-04-18T06:12:34.521Z,10.00
2018-04-18T06:15:00.460Z,7.80
2018-04-18T06:17:26.329Z,14.07
2018-04-18T06:19:54.246Z,11.10
2018-04-18T06:22:20.152Z,9.45
2018-04-18T06:24:49.432Z,9.83
2018-04-18T06:27:15.365Z,15.18
2018-04-18T06:29:43.246Z,10.40
2018-04-18T06:32:09.150Z,22.65
2018-04-18T06:34:38.522Z,15.60
2018-04-18T06:37:04.385Z,20.55
2018-04-18T06:39:33.615Z,11.67
2018-04-18T06:41:59.498Z,20.90
2018-04-18T06:44:28.515Z,12.87
2018-04-18T06:46:54.451Z,21.60
2018-04-18T06:49:20.337Z,13.90
2018-04-18T06:51:46.217Z,14.77
2018-04-18T06:54:12.125Z,11.73
2018-04-18T06:56:39.640Z,17.10
2018-04-18T06:59:05.566Z,20.87
2018-04-18T07:01:34.686Z,18.27
2018-04-18T07:04:00.574Z,14.70
2018-04-18T07:06:29.760Z,13.43
2018-04-18T07:08:55.692Z,14.83
2018-04-18T07:11:24.815Z,12.30
2018-04-18T07:13:50.729Z,14.13
2018-04-18T07:16:17.985Z,23.73
2018-04-18T07:18:43.912Z,11.83
2018-04-18T07:21:12.784Z,21.17
2018-04-18T07:23:38.646Z,17.53
2018-04-18T07:26:04.534Z,22.80
2018-04-18T07:28:30.520Z,13.13
2018-04-18T07:30:56.431Z,33.57
2018-04-18T07:33:26.087Z,14.33
2018-04-18T07:35:52.019Z,24.10
2018-04-18T07:38:19.768Z,18.93
2018-04-18T07:40:45.680Z,22.93
2018-04-18T07:43:14.872Z,26.10
2018-04-18T07:45:40.766Z,24.87
2018-04-18T07:48:10.167Z,18.53
2018-04-18T07:50:36.042Z,27.73
2018-04-18T07:53:03.435Z,23.13
2018-04-18T07:55:29.369Z,18.33
2018-04-18T07:57:58.826Z,42.87
2018-04-18T08:00:24.738Z,34.83
2018-04-18T08:02:50.618Z,42.03
2018-04-18T08:05:16.515Z,42.30
2018-04-18T08:07:42.430Z,45.30
2018-04-18T08:10:09.767Z,29.23
2018-04-18T08:12:35.669Z,30.83
2018-04-18T08:15:04.538Z,30.67
2018-04-18T08:17:30.448Z,43.33
2018-04-18T08:19:59.752Z,46.13
2018-04-18T08:22:25.657Z,39.90
2018-04-18T08:24:55.036Z,29.27
2018-04-18T08:27:20.923Z,28.10
2018-04-18T08:29:50.228Z,23.37
2018-04-18T08:32:16.110Z,44.83
2018-04-18T08:34:43.521Z,63.33
2018-04-18T08:37:09.448Z,42.83
2018-04-18T08:39:35.347Z,40.90
2018-04-18T08:42:01.272Z,45.03
2018-04-18T08:44:27.169Z,41.07
2018-04-18T08:46:56.638Z,27.33
2018-04-18T08:49:22.565Z,27.37
2018-04-18T08:51:49.980Z,22.40
2018-04-18T08:54:15.880Z,21.67
2018-04-18T08:56:45.282Z,30.80
2018-04-18T08:59:11.193Z,49.57
2018-04-18T09:01:39.389Z,35.13
2018-04-18T09:04:05.366Z,35.10
2018-04-18T09:06:33.662Z,29.37
2018-04-18T09:08:59.586Z,28.33
2018-04-18T09:11:28.343Z,19.00
2018-04-18T09:13:54.259Z,28.10
2018-04-18T09:16:20.154Z,30.20
2018-04-18T09:18:46.079Z,38.93
2018-04-18T09:21:11.974Z,26.57
2018-04-18T09:23:41.022Z,22.03
2018-04-18T09:26:06.897Z,26.13
2018-04-18T09:28:36.544Z,17.43
2018-04-18T09:31:02.463Z,17.40
2018-04-18T09:33:30.007Z,12.73
2018-04-18T09:35:55.899Z,12.57
2018-04-18T09:38:24.947Z,23.17
2018-04-18T09:40:50.835Z,41.93
2018-04-18T09:43:19.840Z,22.00
2018-04-18T09:45:45.714Z,25.77
2018-04-18T09:48:15.539Z,20.50
2018-04-18T09:50:41.483Z,14.07
2018-04-18T09:53:07.331Z,17.40
2018-04-18T09:55:33.181Z,15.90
2018-04-18T09:57:59.257Z,17.53
2018-04-18T10:00:32.296Z,20.33
2018-04-18T10:03:04.402Z,12.80
2018-04-18T10:05:30.291Z,9.40
2018-04-18T10:07:56.220Z,14.40
2018-04-18T10:10:22.166Z,14.87
2018-04-18T10:12:48.016Z,15.20
2018-04-18T10:15:13.939Z,14.00
2018-04-18T10:17:39.835Z,18.07
2018-04-18T10:20:05.763Z,22.83
2018-04-18T10:22:31.667Z,15.10
2018-04-18T10:25:00.872Z,19.10
2018-04-18T10:27:26.785Z,14.63
2018-04-18T10:29:52.708Z,19.07
2018-04-18T10:32:18.614Z,18.70
2018-04-18T10:34:44.547Z,17.73
2018-04-18T10:37:11.302Z,19.50
2018-04-18T10:39:37.210Z,18.23
2018-04-18T10:42:07.152Z,16.63
2018-04-18T10:44:33.070Z,22.60
2018-04-18T10:47:02.076Z,18.33
2018-04-18T10:49:27.980Z,14.90
2018-04-18T10:51:55.148Z,13.93
2018-04-18T10:54:21.023Z,21.77
2018-04-18T10:56:50.133Z,13.80
2018-04-18T10:59:16.014Z,17.00
2018-04-18T11:01:45.169Z,13.73
2018-04-18T11:04:11.066Z,13.33
2018-04-18T11:06:36.964Z,15.13
2018-04-18T11:09:02.893Z,17.53
2018-04-18T11:11:28.797Z,13.67
2018-04-18T11:13:56.301Z,14.63
2018-04-18T11:16:22.195Z,19.53
2018-04-18T11:18:51.944Z,13.63
2018-04-18T11:21:17.867Z,14.03
2018-04-18T11:23:47.210Z,13.37
2018-04-18T11:26:13.119Z,12.77
2018-04-18T11:28:40.446Z,15.63
2018-04-18T11:31:06.327Z,11.43
2018-04-18T11:33:36.008Z,14.90
2018-04-18T11:36:01.911Z,23.30
2018-04-18T11:38:31.206Z,18.80
2018-04-18T11:40:57.115Z,38.23
2018-04-18T11:43:23.005Z,11.43
2018-04-18T11:45:48.921Z,16.83
2018-04-18T11:48:14.821Z,18.20
2018-04-18T11:50:41.547Z,27.63
2018-04-18T11:53:07.434Z,15.27
2018-04-18T11:55:37.225Z,21.43
2018-04-18T11:58:03.151Z,15.73
2018-04-18T12:00:32.553Z,9.70
2018-04-18T12:02:58.478Z,8.00
2018-04-18T12:05:25.456Z,10.73
2018-04-18T12:07:51.341Z,13.27
2018-04-18T12:10:20.958Z,14.33
2018-04-18T12:12:46.893Z,10.67
2018-04-18T12:15:15.914Z,22.77
2018-04-18T12:17:41.868Z,14.67
2018-04-18T12:20:07.737Z,18.10
2018-04-18T12:22:33.632Z,11.50
2018-04-18T12:24:59.532Z,15.97
2018-04-18T12:27:28.550Z,12.53
2018-04-18T12:29:54.423Z,15.40
2018-04-18T12:32:22.241Z,9.83
2018-04-18T12:34:48.147Z,32.97
2018-04-18T12:37:17.851Z,16.70
2018-04-18T12:39:43.763Z,12.77
2018-04-18T12:42:11.246Z,8.80
2018-04-18T12:44:37.132Z,8.33
2018-04-18T12:47:05.446Z,12.73
2018-04-18T12:49:31.364Z,13.63
2018-04-18T12:52:00.174Z,9.43
2018-04-18T12:54:26.108Z,13.53
2018-04-18T12:56:52.011Z,23.97
2018-04-18T12:59:17.911Z,22.30
2018-04-18T13:01:43.799Z,12.67
2018-04-18T13:04:13.536Z,13.37
2018-04-18T13:06:39.503Z,14.20
2018-04-18T13:09:06.834Z,10.50
2018-04-18T13:11:32.728Z,16.73
2018-04-18T13:14:01.943Z,25.77
2018-04-18T13:16:27.855Z,17.03
2018-04-18T13:18:56.533Z,8.67
2018-04-18T13:21:22.418Z,15.30
2018-04-18T13:23:51.272Z,24.20
2018-04-18T13:26:17.190Z,15.90
2018-04-18T13:28:46.353Z,9.10
2018-04-18T13:31:12.261Z,6.70
2018-04-18T13:33:38.174Z,10.23
2018-04-18T13:36:04.093Z,4.50
2018-04-18T13:38:29.974Z,8.37
2018-04-18T13:40:57.771Z,4.10
2018-04-18T13:43:23.682Z,13.83
2018-04-18T13:45:52.191Z,7.37
2018-04-18T13:48:18.091Z,6.23
2018-04-18T13:50:47.050Z,36.97
2018-04-18T13:53:12.967Z,28.37
2018-04-18T13:55:41.974Z,18.10
2018-04-18T13:58:07.850Z,10.00
2018-04-18T14:00:37.156Z,9.97
2018-04-18T14:03:03.105Z,7.00
2018-04-18T14:05:32.539Z,3.60
2018-04-18T14:07:58.432Z,6.43
2018-04-18T14:10:24.355Z,21.37
2018-04-18T14:12:50.246Z,16.60
2018-04-18T14:15:16.136Z,21.20
2018-04-18T14:17:43.145Z,8.30
2018-04-18T14:20:09.004Z,4.40
2018-04-18T14:22:38.016Z,7.10
2018-04-18T14:25:03.920Z,5.53
2018-04-18T14:27:33.518Z,4.10
2018-04-18T14:29:59.449Z,6.83
2018-04-18T14:32:28.547Z,5.33
2018-04-18T14:34:54.427Z,6.90
2018-04-18T14:37:21.992Z,5.43
2018-04-18T14:39:47.894Z,8.40
2018-04-18T14:42:16.271Z,15.27
2018-04-18T14:44:42.188Z,11.03
2018-04-18T14:47:08.056Z,10.33
2018-04-18T14:49:33.972Z,8.77
2018-04-18T14:51:59.872Z,7.23
2018-04-18T14:54:29.472Z,11.03
2018-04-18T14:56:55.383Z,8.27
2018-04-18T14:59:22.600Z,5.57
2018-04-18T15:01:48.472Z,7.27
2018-04-18T15:04:18.388Z,5.70
2018-04-18T15:06:44.313Z,5.90
2018-04-18T15:09:12.057Z,6.17
2018-04-18T15:11:37.948Z,6.30
2018-04-18T15:14:07.513Z,4.93
2018-04-18T15:16:33.442Z,6.87
2018-04-18T15:19:03.129Z,4.23
2018-04-18T15:21:29.001Z,5.30
2018-04-18T15:23:54.907Z,6.80
2018-04-18T15:26:20.771Z,11.53
2018-04-18T15:28:46.654Z,6.87
2018-04-18T15:31:13.463Z,7.17
2018-04-18T15:33:39.391Z,10.00
2018-04-18T15:36:08.512Z,8.53
2018-04-18T15:38:34.435Z,8.03
2018-04-18T15:41:03.653Z,11.90
2018-04-18T15:43:29.559Z,5.30
2018-04-18T15:45:58.847Z,7.43
2018-04-18T15:48:24.738Z,6.40
2018-04-18T15:50:52.072Z,6.77
2018-04-18T15:53:17.972Z,6.57
2018-04-18T15:55:47.279Z,5.90
2018-04-18T15:58:13.143Z,8.07
2018-04-18T16:00:39.032Z,5.90
2018-04-18T16:03:04.917Z,7.60
2018-04-18T16:05:30.888Z,3.53
2018-04-18T16:07:58.247Z,5.87
2018-04-18T16:10:24.164Z,9.40
2018-04-18T16:12:53.114Z,5.90
2018-04-18T16:15:19.033Z,5.83
2018-04-18T16:17:48.724Z,3.03
2018-04-18T16:20:14.643Z,4.53
2018-04-18T16:22:44.068Z,12.03
2018-04-18T16:25:10.020Z,5.20
2018-04-18T16:27:37.776Z,6.97
2018-04-18T16:30:03.890Z,3.53
2018-04-18T16:32:33.404Z,7.97
2018-04-18T16:34:59.227Z,8.17
2018-04-18T16:37:25.093Z,5.10
2018-04-18T16:39:50.974Z,7.83
2018-04-18T16:42:16.883Z,4.27
2018-04-18T16:44:43.762Z,4.03
2018-04-18T16:47:09.659Z,47.83
2018-04-18T16:49:39.283Z,5.20
2018-04-18T16:52:05.191Z,3.47
2018-04-18T16:54:33.451Z,4.77
2018-04-18T16:56:59.406Z,6.73
2018-04-18T16:59:28.880Z,13.50
2018-04-18T17:01:54.762Z,8.10
2018-04-18T17:04:22.401Z,13.07
2018-04-18T17:06:48.323Z,8.87
2018-04-18T17:09:17.048Z,7.23
2018-04-18T17:11:42.941Z,9.70
2018-04-18T17:14:09.129Z,5.43
2018-04-18T17:16:35.936Z,8.23
2018-04-18T17:19:06.959Z,8.37
2018-04-18T17:21:32.998Z,5.63
2018-04-18T17:23:58.959Z,5.10
2018-04-18T17:26:24.894Z,9.40
2018-04-18T17:28:50.823Z,10.23
2018-04-18T17:31:18.470Z,6.10
2018-04-18T17:33:44.353Z,8.50
2018-04-18T17:36:13.807Z,8.93
2018-04-18T17:38:39.718Z,4.53
2018-04-18T17:41:07.958Z,6.90
2018-04-18T17:43:33.864Z,6.50
2018-04-18T17:46:03.385Z,5.77
2018-04-18T17:48:29.245Z,5.23
2018-04-18T17:50:55.111Z,14.97
2018-04-18T17:53:21.016Z,8.07
2018-04-18T17:55:46.932Z,6.90
2018-04-18T17:58:14.070Z,5.60
2018-04-18T18:00:39.996Z,11.17
2018-04-18T18:03:08.940Z,9.00
2018-04-18T18:05:34.877Z,10.57
2018-04-18T18:08:04.100Z,8.63
2018-04-18T18:10:29.999Z,3.87
2018-04-18T18:12:58.943Z,5.07
2018-04-18T18:15:24.821Z,13.20
2018-04-18T18:17:54.707Z,4.20
2018-04-18T18:20:20.659Z,5.23
2018-04-18T18:22:47.654Z,3.53
2018-04-18T18:25:13.610Z,8.10
2018-04-18T18:27:39.523Z,6.40
2018-04-18T18:30:05.416Z,8.00
2018-04-18T18:32:31.287Z,6.13
2018-04-18T18:35:00.448Z,5.60
2018-04-18T18:37:26.323Z,4.23
2018-04-18T18:39:55.546Z,12.93
2018-04-18T18:42:21.437Z,5.73
2018-04-18T18:44:48.715Z,10.83
2018-04-18T18:47:14.677Z,4.87
2018-04-18T18:49:43.378Z,6.00
2018-04-18T18:52:09.288Z,6.43
2018-04-18T18:54:38.003Z,10.50
2018-04-18T18:57:03.964Z,5.83
2018-04-18T18:59:33.472Z,7.07
2018-04-18T19:01:59.363Z,4.93
2018-04-18T19:04:25.295Z,5.20
2018-04-18T19:06:51.206Z,17.93
2018-04-18T19:09:17.075Z,19.00
2018-04-18T19:11:44.896Z,11.50
2018-04-18T19:14:10.829Z,14.13
2018-04-18T19:16:39.842Z,7.13
2018-04-18T19:19:05.742Z,9.63
2018-04-18T19:21:34.340Z,6.53
2018-04-18T19:24:00.239Z,8.50
2018-04-18T19:26:29.567Z,3.57
2018-04-18T19:28:55.504Z,6.80
2018-04-18T19:31:23.763Z,6.43
2018-04-18T19:33:49.680Z,13.80
2018-04-18T19:36:18.894Z,5.40
2018-04-18T19:38:44.790Z,17.03
2018-04-18T19:41:10.679Z,6.20
2018-04-18T19:43:36.595Z,8.10
2018-04-18T19:46:02.467Z,5.63
2018-04-18T19:48:30.123Z,7.50
2018-04-18T19:50:56.048Z,10.90
2018-04-18T19:53:25.621Z,6.73
2018-04-18T19:55:51.500Z,5.93
2018-04-18T19:58:19.754Z,13.80
2018-04-18T20:00:45.676Z,9.43
2018-04-18T20:03:14.817Z,8.97
2018-04-18T20:05:40.737Z,8.73
2018-04-18T20:08:10.295Z,10.67
2018-04-18T20:10:36.196Z,7.20
2018-04-18T20:13:03.945Z,10.00
2018-04-18T20:15:29.885Z,8.23
2018-04-18T20:17:55.815Z,10.90
2018-04-18T20:20:21.746Z,10.50
2018-04-18T20:22:47.680Z,13.80
2018-04-18T20:25:17.139Z,8.87
2018-04-18T20:27:43.019Z,11.93
2018-04-18T20:30:10.770Z,9.43
2018-04-18T20:32:36.639Z,12.37
2018-04-18T20:35:06.169Z,9.23
2018-04-18T20:37:32.061Z,9.10
2018-04-18T20:39:59.316Z,12.50
2018-04-18T20:42:25.248Z,7.80
2018-04-18T20:44:54.413Z,10.07
2018-04-18T20:47:20.337Z,7.80
2018-04-18T20:49:48.734Z,12.77
2018-04-18T20:52:14.636Z,7.57
2018-04-18T20:54:40.541Z,9.87
2018-04-18T20:57:06.428Z,18.20
2018-04-18T20:59:32.369Z,13.30
2018-04-18T21:02:00.588Z,12.60
2018-04-18T21:04:26.507Z,11.53
2018-04-18T21:06:55.403Z,12.10
2018-04-18T21:09:22.292Z,9.97
2018-04-18T21:11:51.647Z,13.80
2018-04-18T21:14:17.587Z,13.20
2018-04-18T21:16:44.909Z,12.27
2018-04-18T21:19:10.824Z,11.17
2018-04-18T21:21:40.242Z,15.63
2018-04-18T21:24:06.179Z,13.30
2018-04-18T21:26:34.102Z,17.20
2018-04-18T21:29:00.022Z,17.63
2018-04-18T21:31:25.882Z,20.87
2018-04-18T21:33:51.790Z,16.77
2018-04-18T21:36:17.720Z,16.83
2018-04-18T21:38:47.484Z,16.10
2018-04-18T21:41:13.419Z,16.33
2018-04-18T21:43:41.199Z,18.00
2018-04-18T21:46:07.086Z,13.97
2018-04-18T21:48:35.101Z,19.43
2018-04-18T21:51:00.995Z,20.33
2018-04-18T21:53:30.903Z,17.63
2018-04-18T21:55:56.812Z,16.30
2018-04-18T21:58:24.671Z,16.43
2018-04-18T22:00:50.552Z,23.17
2018-04-18T22:03:19.357Z,20.10
2018-04-18T22:05:45.265Z,18.40
2018-04-18T22:08:11.164Z,15.60
2018-04-18T22:10:37.060Z,17.83
2018-04-18T22:13:02.932Z,18.47
2018-04-18T22:15:32.142Z,16.50
2018-04-18T22:17:58.050Z,17.00
2018-04-18T22:20:25.873Z,18.73
2018-04-18T22:22:51.788Z,16.87
2018-04-18T22:25:20.626Z,17.10
2018-04-18T22:27:46.525Z,15.43
2018-04-18T22:30:15.788Z,15.97
2018-04-18T22:32:41.676Z,12.93
2018-04-18T22:35:11.166Z,23.43
2018-04-18T22:37:37.062Z,12.60
2018-04-18T22:40:04.720Z,14.53
2018-04-18T22:42:30.557Z,15.13
2018-04-18T22:44:56.474Z,15.47
2018-04-18T22:47:22.322Z,13.60
2018-04-18T22:49:48.223Z,14.13
2018-04-18T22:52:16.406Z,19.90
2018-04-18T22:54:42.260Z,10.07
2018-04-18T22:57:11.007Z,13.63
2018-04-18T22:59:36.854Z,15.73
2018-04-18T23:02:06.439Z,12.80
2018-04-18T23:04:32.392Z,15.47
2018-04-18T23:07:01.332Z,18.30
2018-04-18T23:09:27.242Z,22.33
2018-04-18T23:11:55.208Z,17.43
2018-04-18T23:14:21.088Z,17.53
2018-04-18T23:16:50.367Z,17.23
2018-04-18T23:19:16.287Z,13.47
2018-04-18T23:21:42.182Z,16.20
2018-04-18T23:24:08.104Z,15.20
2018-04-18T23:26:33.988Z,13.10
2018-04-18T23:29:01.825Z,14.47
2018-04-18T23:31:27.736Z,17.63
2018-04-18T23:33:57.253Z,16.80
2018-04-18T23:36:23.175Z,17.53
2018-04-18T23:38:53.027Z,11.73
2018-04-18T23:41:18.910Z,15.30
2018-04-18T23:43:46.518Z,15.40
2018-04-18T23:46:12.421Z,19.37
2018-04-18T23:48:42.078Z,16.10
2018-04-18T23:51:07.948Z,16.67
2018-04-18T23:53:35.395Z,16.10
2018-04-18T23:56:01.345Z,22.33
2018-04-18T23:58:27.279Z,16.50
